38.6°F
Current conditions from King Hill
Updated every 5 minutes
 
  Friday April 18, 2014

Station Historical Data
Daily Summary for April 11, 2011 Units:  Both    English   Metric
« Previous Day
Next Day »
Daily Weekly Monthly Yearly Custom
  High: Low: Average:
Temperature: 69.3 °F /  20.7 °C 47.6 °F /  8.7 °C 56.3 °F /  13.5 °C
Dew Point: 58.0 °F /  14.4 °C 42.6 °F /  5.9 °C 49.1 °F /  9.5 °C
Humidity: 92% 49% 78%
Wind Speed: 16.0mph /  25.7km/h - 9mph /  14.5km/h
Wind Gust: 34.0mph /  54.7km/h - -
Wind- - SSW
Pressure: 29.78 in /  1008.4 hPa 29.27 in /  991.1 hPa -
Precipitation: 0.54 in /  13.7 mm    
Historical Graphs
 
 
Tabular Data for April 11, 2011
Time Temperature Dew Point Pressure Wind Wind Speed Wind Gust Humidity Daily Rainfall
00:00 47.8 °F /  8.8 °C 45.3 °F /  7.4 °C 29.78in /  1008.4hPa South 7.0mph /  11.3km/h 19.0mph /  30.6km/h 91% 0.50in /  12.7mm
00:10 47.7 °F /  8.7 °C 45.2 °F /  7.3 °C 29.78in /  1008.4hPa SSW 7.0mph /  11.3km/h 15.0mph /  24.1km/h 91% 0.00in /  0mm
00:15 47.7 °F /  8.7 °C 45.2 °F /  7.3 °C 29.78in /  1008.4hPa SSW 6.0mph /  9.7km/h 15.0mph /  24.1km/h 91% 0.00in /  0mm
00:20 47.7 °F /  8.7 °C 45.2 °F /  7.3 °C 29.78in /  1008.4hPa SSW 5.0mph /  8km/h 13.0mph /  20.9km/h 91% 0.00in /  0mm
00:25 47.6 °F /  8.7 °C 45.1 °F /  7.3 °C 29.78in /  1008.4hPa SSW 3.0mph /  4.8km/h 11.0mph /  17.7km/h 91% 0.00in /  0mm
00:30 47.6 °F /  8.7 °C 45.1 °F /  7.3 °C 29.77in /  1008hPa SSW 4.0mph /  6.4km/h 12.0mph /  19.3km/h 91% 0.00in /  0mm
00:35 47.7 °F /  8.7 °C 45.2 °F /  7.3 °C 29.77in /  1008hPa SSW 5.0mph /  8km/h 14.0mph /  22.5km/h 91% 0.00in /  0mm
00:40 47.8 °F /  8.8 °C 45.3 °F /  7.4 °C 29.76in /  1007.7hPa South 6.0mph /  9.7km/h 14.0mph /  22.5km/h 91% 0.00in /  0mm
00:45 48.0 °F /  8.9 °C 45.2 °F /  7.3 °C 29.77in /  1008hPa SSW 4.0mph /  6.4km/h 13.0mph /  20.9km/h 90% 0.00in /  0mm
00:50 48.1 °F /  8.9 °C 45.0 °F /  7.2 °C 29.76in /  1007.7hPa SSW 7.0mph /  11.3km/h 13.0mph /  20.9km/h 89% 0.00in /  0mm
00:55 48.1 °F /  8.9 °C 44.7 °F /  7.1 °C 29.76in /  1007.7hPa South 5.0mph /  8km/h 12.0mph /  19.3km/h 88% 0.00in /  0mm
01:00 48.2 °F /  9 °C 44.8 °F /  7.1 °C 29.76in /  1007.7hPa SSW 5.0mph /  8km/h 15.0mph /  24.1km/h 88% 0.00in /  0mm
01:05 48.1 °F /  8.9 °C 44.7 °F /  7.1 °C 29.75in /  1007.3hPa South 7.0mph /  11.3km/h 15.0mph /  24.1km/h 88% 0.00in /  0mm
01:10 48.3 °F /  9.1 °C 44.6 °F /  7 °C 29.75in /  1007.3hPa SSW 7.0mph /  11.3km/h 14.0mph /  22.5km/h 87% 0.00in /  0mm
01:15 48.6 °F /  9.2 °C 44.6 °F /  7 °C 29.75in /  1007.3hPa SSW 7.0mph /  11.3km/h 13.0mph /  20.9km/h 86% 0.00in /  0mm
01:20 48.7 °F /  9.3 °C 44.4 °F /  6.9 °C 29.73in /  1006.7hPa South 8.0mph /  12.9km/h 13.0mph /  20.9km/h 85% 0.00in /  0mm
01:25 48.8 °F /  9.3 °C 44.2 °F /  6.8 °C 29.73in /  1006.7hPa South 5.0mph /  8km/h 17.0mph /  27.4km/h 84% 0.00in /  0mm
01:30 48.6 °F /  9.2 °C 44.3 °F /  6.8 °C 29.73in /  1006.7hPa South 6.0mph /  9.7km/h 17.0mph /  27.4km/h 85% 0.00in /  0mm
01:35 48.5 °F /  9.2 °C 44.2 °F /  6.8 °C 29.72in /  1006.3hPa SSW 10.0mph /  16.1km/h 14.0mph /  22.5km/h 85% 0.00in /  0mm
01:40 48.4 °F /  9.1 °C 44.1 °F /  6.7 °C 29.72in /  1006.3hPa South 7.0mph /  11.3km/h 18.0mph /  29km/h 85% 0.00in /  0mm
01:45 48.3 °F /  9.1 °C 44.0 °F /  6.7 °C 29.72in /  1006.3hPa South 7.0mph /  11.3km/h 18.0mph /  29km/h 85% 0.00in /  0mm
01:50 48.3 °F /  9.1 °C 44.0 °F /  6.7 °C 29.71in /  1006hPa South 8.0mph /  12.9km/h 15.0mph /  24.1km/h 85% 0.00in /  0mm
01:55 48.3 °F /  9.1 °C 44.0 °F /  6.7 °C 29.71in /  1006hPa SSW 7.0mph /  11.3km/h 16.0mph /  25.7km/h 85% 0.00in /  0mm
02:00 48.3 °F /  9.1 °C 44.0 °F /  6.7 °C 29.70in /  1005.6hPa SSW 7.0mph /  11.3km/h 17.0mph /  27.4km/h 85% 0.00in /  0mm
02:05 48.3 °F /  9.1 °C 44.0 °F /  6.7 °C 29.70in /  1005.6hPa SSW 7.0mph /  11.3km/h 17.0mph /  27.4km/h 85% 0.00in /  0mm
02:10 48.3 °F /  9.1 °C 44.0 °F /  6.7 °C 29.70in /  1005.6hPa SSW 7.0mph /  11.3km/h 17.0mph /  27.4km/h 85% 0.00in /  0mm
02:15 48.2 °F /  9 °C 43.9 °F /  6.6 °C 29.70in /  1005.6hPa South 6.0mph /  9.7km/h 17.0mph /  27.4km/h 85% 0.00in /  0mm
02:20 48.3 °F /  9.1 °C 43.7 °F /  6.5 °C 29.71in /  1006hPa SSW 6.0mph /  9.7km/h 16.0mph /  25.7km/h 84% 0.00in /  0mm
02:25 48.4 °F /  9.1 °C 43.8 °F /  6.6 °C 29.71in /  1006hPa SSW 7.0mph /  11.3km/h 14.0mph /  22.5km/h 84% 0.00in /  0mm
02:30 48.5 °F /  9.2 °C 43.9 °F /  6.6 °C 29.71in /  1006hPa SSW 7.0mph /  11.3km/h 16.0mph /  25.7km/h 84% 0.00in /  0mm
02:35 48.6 °F /  9.2 °C 44.0 °F /  6.7 °C 29.70in /  1005.6hPa SSW 8.0mph /  12.9km/h 16.0mph /  25.7km/h 84% 0.00in /  0mm
02:40 48.6 °F /  9.2 °C 44.0 °F /  6.7 °C 29.69in /  1005.3hPa South 10.0mph /  16.1km/h 19.0mph /  30.6km/h 84% 0.00in /  0mm
02:45 48.6 °F /  9.2 °C 44.0 °F /  6.7 °C 29.67in /  1004.6hPa SSW 9.0mph /  14.5km/h 19.0mph /  30.6km/h 84% 0.00in /  0mm
02:50 48.7 °F /  9.3 °C 43.8 °F /  6.6 °C 29.67in /  1004.6hPa SSW 10.0mph /  16.1km/h 18.0mph /  29km/h 83% 0.00in /  0mm
02:55 48.8 °F /  9.3 °C 43.9 °F /  6.6 °C 29.66in /  1004.3hPa South 9.0mph /  14.5km/h 18.0mph /  29km/h 83% 0.00in /  0mm
03:00 48.8 °F /  9.3 °C 43.9 °F /  6.6 °C 29.67in /  1004.6hPa SSW 10.0mph /  16.1km/h 18.0mph /  29km/h 83% 0.00in /  0mm
03:05 48.8 °F /  9.3 °C 43.9 °F /  6.6 °C 29.67in /  1004.6hPa South 8.0mph /  12.9km/h 18.0mph /  29km/h 83% 0.00in /  0mm
03:10 48.8 °F /  9.3 °C 43.9 °F /  6.6 °C 29.66in /  1004.3hPa SSW 8.0mph /  12.9km/h 16.0mph /  25.7km/h 83% 0.00in /  0mm
03:15 49.0 °F /  9.4 °C 44.1 °F /  6.7 °C 29.67in /  1004.6hPa SSW 8.0mph /  12.9km/h 16.0mph /  25.7km/h 83% 0.00in /  0mm
03:20 49.0 °F /  9.4 °C 44.1 °F /  6.7 °C 29.66in /  1004.3hPa South 9.0mph /  14.5km/h 16.0mph /  25.7km/h 83% 0.00in /  0mm
03:25 49.0 °F /  9.4 °C 44.1 °F /  6.7 °C 29.66in /  1004.3hPa South 8.0mph /  12.9km/h 16.0mph /  25.7km/h 83% 0.00in /  0mm
03:30 48.9 °F /  9.4 °C 44.3 °F /  6.8 °C 29.68in /  1005hPa SSW 7.0mph /  11.3km/h 13.0mph /  20.9km/h 84% 0.00in /  0mm
03:35 48.8 °F /  9.3 °C 44.5 °F /  6.9 °C 29.68in /  1005hPa SW 8.0mph /  12.9km/h 13.0mph /  20.9km/h 85% 0.00in /  0mm
03:40 48.6 °F /  9.2 °C 44.3 °F /  6.8 °C 29.68in /  1005hPa SW 8.0mph /  12.9km/h 16.0mph /  25.7km/h 85% 0.03in /  0.8mm
03:45 48.2 °F /  9 °C 44.2 °F /  6.8 °C 29.69in /  1005.3hPa SW 9.0mph /  14.5km/h 16.0mph /  25.7km/h 86% 0.07in /  1.8mm
03:50 48.0 °F /  8.9 °C 44.3 °F /  6.8 °C 29.69in /  1005.3hPa SSW 4.0mph /  6.4km/h 16.0mph /  25.7km/h 87% 0.08in /  2mm
03:55 47.7 °F /  8.7 °C 44.3 °F /  6.8 °C 29.68in /  1005hPa SSW 7.0mph /  11.3km/h 14.0mph /  22.5km/h 88% 0.08in /  2mm
04:00 47.6 °F /  8.7 °C 44.2 °F /  6.8 °C 29.68in /  1005hPa SSW 10.0mph /  16.1km/h 15.0mph /  24.1km/h 88% 0.09in /  2.3mm
04:05 47.6 °F /  8.7 °C 44.2 °F /  6.8 °C 29.67in /  1004.6hPa SSW 9.0mph /  14.5km/h 19.0mph /  30.6km/h 88% 0.09in /  2.3mm
04:10 47.7 °F /  8.7 °C 44.3 °F /  6.8 °C 29.67in /  1004.6hPa SSW 8.0mph /  12.9km/h 19.0mph /  30.6km/h 88% 0.09in /  2.3mm
04:15 47.9 °F /  8.8 °C 44.5 °F /  6.9 °C 29.65in /  1003.9hPa SSW 9.0mph /  14.5km/h 17.0mph /  27.4km/h 88% 0.09in /  2.3mm
04:20 48.1 °F /  8.9 °C 44.4 °F /  6.9 °C 29.64in /  1003.6hPa South 10.0mph /  16.1km/h 18.0mph /  29km/h 87% 0.09in /  2.3mm
04:30 47.8 °F /  8.8 °C 44.1 °F /  6.7 °C 29.64in /  1003.6hPa South 8.0mph /  12.9km/h 18.0mph /  29km/h 87% 0.10in /  2.5mm
04:35 47.8 °F /  8.8 °C 44.4 °F /  6.9 °C 29.63in /  1003.3hPa South 9.0mph /  14.5km/h 19.0mph /  30.6km/h 88% 0.10in /  2.5mm
04:40 47.8 °F /  8.8 °C 44.4 °F /  6.9 °C 29.60in /  1002.3hPa South 11.0mph /  17.7km/h 19.0mph /  30.6km/h 88% 0.11in /  2.8mm
04:45 47.9 °F /  8.8 °C 44.5 °F /  6.9 °C 29.56in /  1000.9hPa South 10.0mph /  16.1km/h 20.0mph /  32.2km/h 88% 0.11in /  2.8mm
04:50 47.9 °F /  8.8 °C 44.5 °F /  6.9 °C 29.52in /  999.5hPa South 11.0mph /  17.7km/h 25.0mph /  40.2km/h 88% 0.12in /  3mm
04:55 48.1 °F /  8.9 °C 44.7 °F /  7.1 °C 29.51in /  999.2hPa South 8.0mph /  12.9km/h 25.0mph /  40.2km/h 88% 0.12in /  3mm
05:00 48.4 °F /  9.1 °C 45.0 °F /  7.2 °C 29.54in /  1000.2hPa SSW 3.0mph /  4.8km/h 16.0mph /  25.7km/h 88% 0.12in /  3mm
05:05 48.4 °F /  9.1 °C 45.0 °F /  7.2 °C 29.57in /  1001.2hPa SW 3.0mph /  4.8km/h 15.0mph /  24.1km/h 88% 0.12in /  3mm
05:15 48.3 °F /  9.1 °C 45.2 °F /  7.3 °C 29.56in /  1000.9hPa SSW 8.0mph /  12.9km/h 14.0mph /  22.5km/h 89% 0.12in /  3mm
05:20 48.2 °F /  9 °C 44.8 °F /  7.1 °C 29.56in /  1000.9hPa SSW 5.0mph /  8km/h 14.0mph /  22.5km/h 88% 0.12in /  3mm
05:25 48.0 °F /  8.9 °C 44.9 °F /  7.2 °C 29.55in /  1000.6hPa SSW 6.0mph /  9.7km/h 13.0mph /  20.9km/h 89% 0.12in /  3mm
05:30 47.9 °F /  8.8 °C 44.8 °F /  7.1 °C 29.55in /  1000.6hPa SSW 9.0mph /  14.5km/h 17.0mph /  27.4km/h 89% 0.12in /  3mm
05:40 48.1 °F /  8.9 °C 45.0 °F /  7.2 °C 29.56in /  1000.9hPa SSW 8.0mph /  12.9km/h 18.0mph /  29km/h 89% 0.12in /  3mm
05:45 48.2 °F /  9 °C 45.1 °F /  7.3 °C 29.56in /  1000.9hPa SSW 8.0mph /  12.9km/h 18.0mph /  29km/h 89% 0.12in /  3mm
05:55 48.4 °F /  9.1 °C 45.0 °F /  7.2 °C 29.55in /  1000.6hPa SSW 9.0mph /  14.5km/h 24.0mph /  38.6km/h 88% 0.12in /  3mm
06:00 48.4 °F /  9.1 °C 45.0 °F /  7.2 °C 29.55in /  1000.6hPa SSW 11.0mph /  17.7km/h 20.0mph /  32.2km/h 88% 0.12in /  3mm
06:05 48.5 °F /  9.2 °C 45.1 °F /  7.3 °C 29.53in /  999.9hPa SSW 13.0mph /  20.9km/h 21.0mph /  33.8km/h 88% 0.12in /  3mm
06:10 48.6 °F /  9.2 °C 45.2 °F /  7.3 °C 29.54in /  1000.2hPa SSW 10.0mph /  16.1km/h 21.0mph /  33.8km/h 88% 0.12in /  3mm
06:15 48.7 °F /  9.3 °C 45.3 °F /  7.4 °C 29.54in /  1000.2hPa SSW 11.0mph /  17.7km/h 19.0mph /  30.6km/h 88% 0.12in /  3mm
06:20 48.9 °F /  9.4 °C 45.2 °F /  7.3 °C 29.54in /  1000.2hPa SSW 9.0mph /  14.5km/h 19.0mph /  30.6km/h 87% 0.12in /  3mm
06:25 49.3 °F /  9.6 °C 45.6 °F /  7.6 °C 29.54in /  1000.2hPa SSW 10.0mph /  16.1km/h 19.0mph /  30.6km/h 87% 0.12in /  3mm
06:35 49.9 °F /  9.9 °C 45.9 °F /  7.7 °C 29.53in /  999.9hPa SSW 10.0mph /  16.1km/h 19.0mph /  30.6km/h 86% 0.12in /  3mm
06:40 50.3 °F /  10.2 °C 46.3 °F /  7.9 °C 29.54in /  1000.2hPa SSW 10.0mph /  16.1km/h 19.0mph /  30.6km/h 86% 0.12in /  3mm
06:45 50.4 °F /  10.2 °C 46.1 °F /  7.8 °C 29.55in /  1000.6hPa SSW 12.0mph /  19.3km/h 21.0mph /  33.8km/h 85% 0.12in /  3mm
06:50 50.5 °F /  10.3 °C 46.2 °F /  7.9 °C 29.53in /  999.9hPa SSW 11.0mph /  17.7km/h 22.0mph /  35.4km/h 85% 0.12in /  3mm
06:55 50.7 °F /  10.4 °C 46.4 °F /  8 °C 29.53in /  999.9hPa SSW 11.0mph /  17.7km/h 22.0mph /  35.4km/h 85% 0.12in /  3mm
07:00 50.8 °F /  10.4 °C 46.1 °F /  7.8 °C 29.54in /  1000.2hPa SSW 13.0mph /  20.9km/h 26.0mph /  41.8km/h 84% 0.12in /  3mm
07:05 50.8 °F /  10.4 °C 46.5 °F /  8.1 °C 29.54in /  1000.2hPa SSW 2.0mph /  3.2km/h 11.0mph /  17.7km/h 85% 0.12in /  3mm
07:10 50.9 °F /  10.5 °C 46.6 °F /  8.1 °C 29.56in /  1000.9hPa SSW 9.0mph /  14.5km/h 18.0mph /  29km/h 85% 0.13in /  3.3mm
07:15 51.0 °F /  10.6 °C 46.7 °F /  8.2 °C 29.58in /  1001.6hPa SW 7.0mph /  11.3km/h 19.0mph /  30.6km/h 85% 0.13in /  3.3mm
07:20 51.0 °F /  10.6 °C 46.7 °F /  8.2 °C 29.61in /  1002.6hPa East 3.0mph /  4.8km/h 19.0mph /  30.6km/h 85% 0.14in /  3.6mm
07:25 50.5 °F /  10.3 °C 46.5 °F /  8.1 °C 29.60in /  1002.3hPa SE 1.0mph /  1.6km/h 12.0mph /  19.3km/h 86% 0.14in /  3.6mm
07:30 50.2 °F /  10.1 °C 46.5 °F /  8.1 °C 29.63in /  1003.3hPa Calm   7.0mph /  11.3km/h 87% 0.15in /  3.8mm
07:35 50.2 °F /  10.1 °C 46.8 °F /  8.2 °C 29.75in /  1007.3hPa NW 16.0mph /  25.7km/h 28.0mph /  45.1km/h 88% 0.18in /  4.6mm
07:40 49.7 °F /  9.8 °C 46.3 °F /  7.9 °C 29.64in /  1003.6hPa ENE 2.0mph /  3.2km/h 28.0mph /  45.1km/h 88% 0.37in /  9.4mm
07:45 49.4 °F /  9.7 °C 46.3 °F /  7.9 °C 29.65in /  1003.9hPa SE 1.0mph /  1.6km/h 8.0mph /  12.9km/h 89% 0.49in /  12.4mm
07:50 48.7 °F /  9.3 °C 45.6 °F /  7.6 °C 29.64in /  1003.6hPa ENE 1.0mph /  1.6km/h 5.0mph /  8km/h 89% 0.51in /  13mm
07:55 48.7 °F /  9.3 °C 45.9 °F /  7.7 °C 29.61in /  1002.6hPa South 4.0mph /  6.4km/h 6.0mph /  9.7km/h 90% 0.52in /  13.2mm
08:00 48.9 °F /  9.4 °C 46.4 °F /  8 °C 29.60in /  1002.3hPa South 6.0mph /  9.7km/h 8.0mph /  12.9km/h 91% 0.52in /  13.2mm
08:05 49.0 °F /  9.4 °C 46.8 °F /  8.2 °C 29.59in /  1001.9hPa South 7.0mph /  11.3km/h 13.0mph /  20.9km/h 92% 0.52in /  13.2mm
08:10 49.1 °F /  9.5 °C 46.9 °F /  8.3 °C 29.59in /  1001.9hPa South 8.0mph /  12.9km/h 13.0mph /  20.9km/h 92% 0.52in /  13.2mm
08:15 49.2 °F /  9.6 °C 47.0 °F /  8.3 °C 29.59in /  1001.9hPa SSW 6.0mph /  9.7km/h 15.0mph /  24.1km/h 92% 0.52in /  13.2mm
08:20 49.2 °F /  9.6 °C 47.0 °F /  8.3 °C 29.58in /  1001.6hPa South 6.0mph /  9.7km/h 16.0mph /  25.7km/h 92% 0.52in /  13.2mm
08:25 49.3 °F /  9.6 °C 47.1 °F /  8.4 °C 29.58in /  1001.6hPa South 8.0mph /  12.9km/h 16.0mph /  25.7km/h 92% 0.52in /  13.2mm
08:30 49.4 °F /  9.7 °C 47.2 °F /  8.4 °C 29.57in /  1001.2hPa SSW 9.0mph /  14.5km/h 15.0mph /  24.1km/h 92% 0.52in /  13.2mm
08:35 49.5 °F /  9.7 °C 47.3 °F /  8.5 °C 29.56in /  1000.9hPa SSW 9.0mph /  14.5km/h 15.0mph /  24.1km/h 92% 0.52in /  13.2mm
08:40 49.6 °F /  9.8 °C 47.4 °F /  8.6 °C 29.56in /  1000.9hPa SSW 9.0mph /  14.5km/h 15.0mph /  24.1km/h 92% 0.52in /  13.2mm
08:45 49.8 °F /  9.9 °C 47.6 °F /  8.7 °C 29.56in /  1000.9hPa SSW 8.0mph /  12.9km/h 17.0mph /  27.4km/h 92% 0.52in /  13.2mm
08:50 49.9 °F /  9.9 °C 47.7 °F /  8.7 °C 29.55in /  1000.6hPa SSW 9.0mph /  14.5km/h 17.0mph /  27.4km/h 92% 0.52in /  13.2mm
08:55 50.0 °F /  10 °C 47.8 °F /  8.8 °C 29.54in /  1000.2hPa SSW 8.0mph /  12.9km/h 17.0mph /  27.4km/h 92% 0.52in /  13.2mm
09:00 50.1 °F /  10.1 °C 47.9 °F /  8.8 °C 29.55in /  1000.6hPa SSW 9.0mph /  14.5km/h 15.0mph /  24.1km/h 92% 0.52in /  13.2mm
09:05 50.1 °F /  10.1 °C 47.9 °F /  8.8 °C 29.54in /  1000.2hPa South 8.0mph /  12.9km/h 16.0mph /  25.7km/h 92% 0.52in /  13.2mm
09:10 50.3 °F /  10.2 °C 48.1 °F /  8.9 °C 29.53in /  999.9hPa South 8.0mph /  12.9km/h 18.0mph /  29km/h 92% 0.52in /  13.2mm
09:15 50.4 °F /  10.2 °C 48.2 °F /  9 °C 29.54in /  1000.2hPa SSW 8.0mph /  12.9km/h 18.0mph /  29km/h 92% 0.52in /  13.2mm
09:25 50.9 °F /  10.5 °C 48.7 °F /  9.3 °C 29.52in /  999.5hPa SSW 10.0mph /  16.1km/h 16.0mph /  25.7km/h 92% 0.52in /  13.2mm
09:30 51.1 °F /  10.6 °C 48.6 °F /  9.2 °C 29.52in /  999.5hPa SSW 10.0mph /  16.1km/h 17.0mph /  27.4km/h 91% 0.52in /  13.2mm
09:35 51.3 °F /  10.7 °C 48.8 °F /  9.3 °C 29.51in /  999.2hPa South 6.0mph /  9.7km/h 18.0mph /  29km/h 91% 0.52in /  13.2mm
09:40 51.4 °F /  10.8 °C 48.9 °F /  9.4 °C 29.51in /  999.2hPa South 9.0mph /  14.5km/h 18.0mph /  29km/h 91% 0.52in /  13.2mm
09:45 51.5 °F /  10.8 °C 49.0 °F /  9.4 °C 29.51in /  999.2hPa South 7.0mph /  11.3km/h 14.0mph /  22.5km/h 91% 0.52in /  13.2mm
09:50 51.4 °F /  10.8 °C 48.9 °F /  9.4 °C 29.50in /  998.9hPa South 9.0mph /  14.5km/h 17.0mph /  27.4km/h 91% 0.52in /  13.2mm
09:55 51.8 °F /  11 °C 49.3 °F /  9.6 °C 29.51in /  999.2hPa SSW 7.0mph /  11.3km/h 17.0mph /  27.4km/h 91% 0.52in /  13.2mm
10:00 52.0 °F /  11.1 °C 49.5 °F /  9.7 °C 29.51in /  999.2hPa SW 8.0mph /  12.9km/h 17.0mph /  27.4km/h 91% 0.52in /  13.2mm
10:05 51.9 °F /  11.1 °C 49.4 °F /  9.7 °C 29.50in /  998.9hPa SW 9.0mph /  14.5km/h 18.0mph /  29km/h 91% 0.52in /  13.2mm
10:10 51.8 °F /  11 °C 49.3 °F /  9.6 °C 29.50in /  998.9hPa SSW 8.0mph /  12.9km/h 19.0mph /  30.6km/h 91% 0.52in /  13.2mm
10:15 52.0 °F /  11.1 °C 49.5 °F /  9.7 °C 29.50in /  998.9hPa SSW 9.0mph /  14.5km/h 20.0mph /  32.2km/h 91% 0.52in /  13.2mm
10:20 52.1 °F /  11.2 °C 49.3 °F /  9.6 °C 29.49in /  998.5hPa SSW 10.0mph /  16.1km/h 23.0mph /  37km/h 90% 0.52in /  13.2mm
10:25 52.3 °F /  11.3 °C 49.5 °F /  9.7 °C 29.49in /  998.5hPa SSW 11.0mph /  17.7km/h 24.0mph /  38.6km/h 90% 0.52in /  13.2mm
10:30 52.6 °F /  11.4 °C 49.5 °F /  9.7 °C 29.49in /  998.5hPa SSW 10.0mph /  16.1km/h 24.0mph /  38.6km/h 89% 0.52in /  13.2mm
10:40 52.8 °F /  11.6 °C 49.7 °F /  9.8 °C 29.49in /  998.5hPa SSW 12.0mph /  19.3km/h 27.0mph /  43.5km/h 89% 0.52in /  13.2mm
10:45 52.9 °F /  11.6 °C 49.7 °F /  9.8 °C 29.49in /  998.5hPa SSW 11.0mph /  17.7km/h 27.0mph /  43.5km/h 89% 0.52in /  13.2mm
10:50 53.2 °F /  11.8 °C 50.0 °F /  10 °C 29.48in /  998.2hPa SSW 11.0mph /  17.7km/h 21.0mph /  33.8km/h 89% 0.52in /  13.2mm
10:55 53.3 °F /  11.8 °C 49.8 °F /  9.9 °C 29.48in /  998.2hPa SSW 13.0mph /  20.9km/h 24.0mph /  38.6km/h 88% 0.52in /  13.2mm
11:00 53.4 °F /  11.9 °C 49.9 °F /  9.9 °C 29.48in /  998.2hPa SSW 12.0mph /  19.3km/h 24.0mph /  38.6km/h 88% 0.52in /  13.2mm
11:05 53.5 °F /  11.9 °C 50.0 °F /  10 °C 29.47in /  997.9hPa SSW 12.0mph /  19.3km/h 27.0mph /  43.5km/h 88% 0.52in /  13.2mm
11:10 53.9 °F /  12.2 °C 50.1 °F /  10.1 °C 29.47in /  997.9hPa SSW 15.0mph /  24.1km/h 29.0mph /  46.7km/h 87% 0.52in /  13.2mm
11:15 54.2 °F /  12.3 °C 50.4 °F /  10.2 °C 29.47in /  997.9hPa SSW 14.0mph /  22.5km/h 29.0mph /  46.7km/h 87% 0.52in /  13.2mm
11:20 54.3 °F /  12.4 °C 50.5 °F /  10.3 °C 29.47in /  997.9hPa SSW 10.0mph /  16.1km/h 26.0mph /  41.8km/h 87% 0.52in /  13.2mm
11:25 54.3 °F /  12.4 °C 50.2 °F /  10.1 °C 29.47in /  997.9hPa SSW 12.0mph /  19.3km/h 24.0mph /  38.6km/h 86% 0.52in /  13.2mm
11:30 54.3 °F /  12.4 °C 50.2 °F /  10.1 °C 29.47in /  997.9hPa SSW 12.0mph /  19.3km/h 24.0mph /  38.6km/h 86% 0.52in /  13.2mm
11:35 54.5 °F /  12.5 °C 50.4 °F /  10.2 °C 29.45in /  997.2hPa SSW 13.0mph /  20.9km/h 21.0mph /  33.8km/h 86% 0.52in /  13.2mm
11:40 54.8 °F /  12.7 °C 50.7 °F /  10.4 °C 29.44in /  996.8hPa SSW 12.0mph /  19.3km/h 23.0mph /  37km/h 86% 0.52in /  13.2mm
11:45 55.1 °F /  12.8 °C 51.0 °F /  10.6 °C 29.44in /  996.8hPa SSW 12.0mph /  19.3km/h 26.0mph /  41.8km/h 86% 0.52in /  13.2mm
11:50 55.5 °F /  13.1 °C 51.1 °F /  10.6 °C 29.43in /  996.5hPa SSW 14.0mph /  22.5km/h 26.0mph /  41.8km/h 85% 0.52in /  13.2mm
11:55 56.3 °F /  13.5 °C 51.9 °F /  11.1 °C 29.41in /  995.8hPa SSW 13.0mph /  20.9km/h 26.0mph /  41.8km/h 85% 0.52in /  13.2mm
12:00 56.7 °F /  13.7 °C 51.9 °F /  11.1 °C 29.41in /  995.8hPa SSW 13.0mph /  20.9km/h 26.0mph /  41.8km/h 84% 0.52in /  13.2mm
12:05 57.1 °F /  13.9 °C 52.3 °F /  11.3 °C 29.41in /  995.8hPa SSW 13.0mph /  20.9km/h 26.0mph /  41.8km/h 84% 0.52in /  13.2mm
12:10 56.8 °F /  13.8 °C 51.7 °F /  10.9 °C 29.41in /  995.8hPa SSW 11.0mph /  17.7km/h 23.0mph /  37km/h 83% 0.52in /  13.2mm
12:15 56.6 °F /  13.7 °C 51.5 °F /  10.8 °C 29.42in /  996.2hPa SSW 12.0mph /  19.3km/h 25.0mph /  40.2km/h 83% 0.52in /  13.2mm
12:20 56.6 °F /  13.7 °C 51.5 °F /  10.8 °C 29.42in /  996.2hPa SW 11.0mph /  17.7km/h 25.0mph /  40.2km/h 83% 0.52in /  13.2mm
12:25 56.7 °F /  13.7 °C 51.6 °F /  10.9 °C 29.42in /  996.2hPa SW 13.0mph /  20.9km/h 24.0mph /  38.6km/h 83% 0.52in /  13.2mm
12:30 56.8 °F /  13.8 °C 51.7 °F /  10.9 °C 29.42in /  996.2hPa SSW 10.0mph /  16.1km/h 24.0mph /  38.6km/h 83% 0.52in /  13.2mm
12:35 56.8 °F /  13.8 °C 51.7 °F /  10.9 °C 29.42in /  996.2hPa SSW 10.0mph /  16.1km/h 29.0mph /  46.7km/h 83% 0.52in /  13.2mm
12:40 57.0 °F /  13.9 °C 51.6 °F /  10.9 °C 29.42in /  996.2hPa SSW 15.0mph /  24.1km/h 29.0mph /  46.7km/h 82% 0.52in /  13.2mm
12:45 57.2 °F /  14 °C 52.1 °F /  11.2 °C 29.42in /  996.2hPa SSW 13.0mph /  20.9km/h 27.0mph /  43.5km/h 83% 0.52in /  13.2mm
12:50 57.8 °F /  14.3 °C 52.7 °F /  11.5 °C 29.41in /  995.8hPa SSW 12.0mph /  19.3km/h 22.0mph /  35.4km/h 83% 0.52in /  13.2mm
12:55 58.1 °F /  14.5 °C 52.3 °F /  11.3 °C 29.41in /  995.8hPa SSW 14.0mph /  22.5km/h 23.0mph /  37km/h 81% 0.52in /  13.2mm
13:05 58.4 °F /  14.7 °C 52.3 °F /  11.3 °C 29.42in /  996.2hPa SSW 13.0mph /  20.9km/h 27.0mph /  43.5km/h 80% 0.52in /  13.2mm
13:10 58.3 °F /  14.6 °C 52.2 °F /  11.2 °C 29.41in /  995.8hPa SSW 12.0mph /  19.3km/h 27.0mph /  43.5km/h 80% 0.52in /  13.2mm
13:15 58.4 °F /  14.7 °C 52.3 °F /  11.3 °C 29.40in /  995.5hPa SSW 12.0mph /  19.3km/h 24.0mph /  38.6km/h 80% 0.52in /  13.2mm
13:20 58.6 °F /  14.8 °C 52.5 °F /  11.4 °C 29.40in /  995.5hPa SSW 10.0mph /  16.1km/h 25.0mph /  40.2km/h 80% 0.52in /  13.2mm
13:25 59.0 °F /  15 °C 52.8 °F /  11.6 °C 29.40in /  995.5hPa SSW 7.0mph /  11.3km/h 25.0mph /  40.2km/h 80% 0.52in /  13.2mm
13:30 59.0 °F /  15 °C 52.8 °F /  11.6 °C 29.39in /  995.1hPa South 8.0mph /  12.9km/h 24.0mph /  38.6km/h 80% 0.52in /  13.2mm
13:35 59.4 °F /  15.2 °C 53.2 °F /  11.8 °C 29.39in /  995.1hPa SSW 10.0mph /  16.1km/h 18.0mph /  29km/h 80% 0.52in /  13.2mm
13:40 59.8 °F /  15.4 °C 53.3 °F /  11.8 °C 29.38in /  994.8hPa South 11.0mph /  17.7km/h 18.0mph /  29km/h 79% 0.52in /  13.2mm
13:45 60.0 °F /  15.6 °C 53.1 °F /  11.7 °C 29.38in /  994.8hPa SSW 10.0mph /  16.1km/h 19.0mph /  30.6km/h 78% 0.52in /  13.2mm
13:50 60.1 °F /  15.6 °C 53.6 °F /  12 °C 29.37in /  994.5hPa SSW 8.0mph /  12.9km/h 19.0mph /  30.6km/h 79% 0.52in /  13.2mm
13:55 60.2 °F /  15.7 °C 53.3 °F /  11.8 °C 29.37in /  994.5hPa SSW 10.0mph /  16.1km/h 19.0mph /  30.6km/h 78% 0.52in /  13.2mm
14:00 60.2 °F /  15.7 °C 53.3 °F /  11.8 °C 29.36in /  994.1hPa SSW 9.0mph /  14.5km/h 21.0mph /  33.8km/h 78% 0.52in /  13.2mm
14:05 60.2 °F /  15.7 °C 53.3 °F /  11.8 °C 29.36in /  994.1hPa SSW 12.0mph /  19.3km/h 21.0mph /  33.8km/h 78% 0.52in /  13.2mm
14:10 60.0 °F /  15.6 °C 53.1 °F /  11.7 °C 29.36in /  994.1hPa SSW 10.0mph /  16.1km/h 29.0mph /  46.7km/h 78% 0.52in /  13.2mm
14:15 60.0 °F /  15.6 °C 53.1 °F /  11.7 °C 29.36in /  994.1hPa SSW 14.0mph /  22.5km/h 29.0mph /  46.7km/h 78% 0.52in /  13.2mm
14:20 59.7 °F /  15.4 °C 53.2 °F /  11.8 °C 29.36in /  994.1hPa SSW 9.0mph /  14.5km/h 23.0mph /  37km/h 79% 0.53in /  13.5mm
14:30 59.0 °F /  15 °C 53.2 °F /  11.8 °C 29.35in /  993.8hPa SSW 12.0mph /  19.3km/h 27.0mph /  43.5km/h 81% 0.53in /  13.5mm
14:35 59.0 °F /  15 °C 53.5 °F /  11.9 °C 29.34in /  993.5hPa SSW 11.0mph /  17.7km/h 22.0mph /  35.4km/h 82% 0.53in /  13.5mm
14:40 59.1 °F /  15.1 °C 53.9 °F /  12.2 °C 29.33in /  993.1hPa SSW 9.0mph /  14.5km/h 22.0mph /  35.4km/h 83% 0.53in /  13.5mm
14:45 59.1 °F /  15.1 °C 53.9 °F /  12.2 °C 29.32in /  992.8hPa South 11.0mph /  17.7km/h 19.0mph /  30.6km/h 83% 0.54in /  13.7mm
14:50 59.0 °F /  15 °C 53.8 °F /  12.1 °C 29.32in /  992.8hPa South 11.0mph /  17.7km/h 20.0mph /  32.2km/h 83% 0.54in /  13.7mm
14:55 59.0 °F /  15 °C 54.2 °F /  12.3 °C 29.32in /  992.8hPa South 10.0mph /  16.1km/h 20.0mph /  32.2km/h 84% 0.54in /  13.7mm
15:00 59.4 °F /  15.2 °C 54.2 °F /  12.3 °C 29.32in /  992.8hPa SSW 10.0mph /  16.1km/h 20.0mph /  32.2km/h 83% 0.54in /  13.7mm
15:05 59.6 °F /  15.3 °C 54.4 °F /  12.4 °C 29.32in /  992.8hPa SSW 9.0mph /  14.5km/h 20.0mph /  32.2km/h 83% 0.54in /  13.7mm
15:10 60.1 °F /  15.6 °C 54.6 °F /  12.6 °C 29.32in /  992.8hPa SSW 10.0mph /  16.1km/h 23.0mph /  37km/h 82% 0.54in /  13.7mm
15:15 60.7 °F /  15.9 °C 54.8 °F /  12.7 °C 29.32in /  992.8hPa SW 11.0mph /  17.7km/h 23.0mph /  37km/h 81% 0.54in /  13.7mm
15:20 61.0 °F /  16.1 °C 54.8 °F /  12.7 °C 29.32in /  992.8hPa SSW 9.0mph /  14.5km/h 23.0mph /  37km/h 80% 0.54in /  13.7mm
15:25 61.2 °F /  16.2 °C 55.0 °F /  12.8 °C 29.32in /  992.8hPa SSW 9.0mph /  14.5km/h 23.0mph /  37km/h 80% 0.54in /  13.7mm
15:30 61.5 °F /  16.4 °C 55.3 °F /  12.9 °C 29.31in /  992.4hPa SSW 10.0mph /  16.1km/h 21.0mph /  33.8km/h 80% 0.54in /  13.7mm
15:35 61.7 °F /  16.5 °C 55.1 °F /  12.8 °C 29.31in /  992.4hPa SSW 10.0mph /  16.1km/h 21.0mph /  33.8km/h 79% 0.54in /  13.7mm
15:45 62.1 °F /  16.7 °C 54.8 °F /  12.7 °C 29.29in /  991.8hPa South 13.0mph /  20.9km/h 20.0mph /  32.2km/h 77% 0.54in /  13.7mm
15:50 62.5 °F /  16.9 °C 55.6 °F /  13.1 °C 29.29in /  991.8hPa SSW 10.0mph /  16.1km/h 20.0mph /  32.2km/h 78% 0.54in /  13.7mm
15:55 62.7 °F /  17.1 °C 55.4 °F /  13 °C 29.28in /  991.4hPa SSW 7.0mph /  11.3km/h 18.0mph /  29km/h 77% 0.54in /  13.7mm
16:00 62.7 °F /  17.1 °C 55.4 °F /  13 °C 29.28in /  991.4hPa SSW 7.0mph /  11.3km/h 19.0mph /  30.6km/h 77% 0.54in /  13.7mm
16:05 62.8 °F /  17.1 °C 55.5 °F /  13.1 °C 29.29in /  991.8hPa SSW 9.0mph /  14.5km/h 19.0mph /  30.6km/h 77% 0.54in /  13.7mm
16:10 63.1 °F /  17.3 °C 55.4 °F /  13 °C 29.29in /  991.8hPa SSW 10.0mph /  16.1km/h 18.0mph /  29km/h 76% 0.54in /  13.7mm
16:15 63.4 °F /  17.4 °C 55.3 °F /  12.9 °C 29.30in /  992.1hPa SSW 9.0mph /  14.5km/h 18.0mph /  29km/h 75% 0.54in /  13.7mm
16:20 63.7 °F /  17.6 °C 55.6 °F /  13.1 °C 29.30in /  992.1hPa SW 8.0mph /  12.9km/h 18.0mph /  29km/h 75% 0.54in /  13.7mm
16:25 64.0 °F /  17.8 °C 55.6 °F /  13.1 °C 29.30in /  992.1hPa SSW 7.0mph /  11.3km/h 17.0mph /  27.4km/h 74% 0.54in /  13.7mm
16:30 64.4 °F /  18 °C 55.9 °F /  13.3 °C 29.30in /  992.1hPa SSW 10.0mph /  16.1km/h 16.0mph /  25.7km/h 74% 0.54in /  13.7mm
16:35 65.0 °F /  18.3 °C 56.1 °F /  13.4 °C 29.30in /  992.1hPa SSW 9.0mph /  14.5km/h 18.0mph /  29km/h 73% 0.54in /  13.7mm
16:40 65.6 °F /  18.7 °C 56.7 °F /  13.7 °C 29.30in /  992.1hPa SW 9.0mph /  14.5km/h 18.0mph /  29km/h 73% 0.54in /  13.7mm
16:45 66.2 °F /  19 °C 56.5 °F /  13.6 °C 29.29in /  991.8hPa SSW 9.0mph /  14.5km/h 17.0mph /  27.4km/h 71% 0.54in /  13.7mm
16:50 66.7 °F /  19.3 °C 56.6 °F /  13.7 °C 29.29in /  991.8hPa SSW 10.0mph /  16.1km/h 17.0mph /  27.4km/h 70% 0.54in /  13.7mm
16:55 66.8 °F /  19.3 °C 57.1 °F /  13.9 °C 29.29in /  991.8hPa SSW 10.0mph /  16.1km/h 22.0mph /  35.4km/h 71% 0.54in /  13.7mm
17:00 66.8 °F /  19.3 °C 56.7 °F /  13.7 °C 29.29in /  991.8hPa SSW 7.0mph /  11.3km/h 22.0mph /  35.4km/h 70% 0.54in /  13.7mm
17:05 66.7 °F /  19.3 °C 56.6 °F /  13.7 °C 29.29in /  991.8hPa South 2.0mph /  3.2km/h 11.0mph /  17.7km/h 70% 0.54in /  13.7mm
17:10 67.0 °F /  19.4 °C 57.3 °F /  14.1 °C 29.28in /  991.4hPa SSW 5.0mph /  8km/h 16.0mph /  25.7km/h 71% 0.54in /  13.7mm
17:15 67.2 °F /  19.6 °C 57.1 °F /  13.9 °C 29.28in /  991.4hPa SSW 10.0mph /  16.1km/h 18.0mph /  29km/h 70% 0.54in /  13.7mm
17:20 67.4 °F /  19.7 °C 57.3 °F /  14.1 °C 29.28in /  991.4hPa SSW 7.0mph /  11.3km/h 18.0mph /  29km/h 70% 0.54in /  13.7mm
17:25 67.6 °F /  19.8 °C 57.5 °F /  14.2 °C 29.28in /  991.4hPa SSW 6.0mph /  9.7km/h 18.0mph /  29km/h 70% 0.54in /  13.7mm
17:30 68.3 °F /  20.2 °C 57.7 °F /  14.3 °C 29.28in /  991.4hPa SSW 6.0mph /  9.7km/h 16.0mph /  25.7km/h 69% 0.54in /  13.7mm
17:35 68.6 °F /  20.3 °C 58.0 °F /  14.4 °C 29.28in /  991.4hPa SSW 8.0mph /  12.9km/h 16.0mph /  25.7km/h 69% 0.54in /  13.7mm
17:40 68.7 °F /  20.4 °C 57.7 °F /  14.3 °C 29.27in /  991.1hPa SSW 9.0mph /  14.5km/h 16.0mph /  25.7km/h 68% 0.54in /  13.7mm
17:45 68.6 °F /  20.3 °C 57.6 °F /  14.2 °C 29.27in /  991.1hPa SSW 7.0mph /  11.3km/h 16.0mph /  25.7km/h 68% 0.54in /  13.7mm
17:50 68.5 °F /  20.3 °C 57.5 °F /  14.2 °C 29.28in /  991.4hPa SSW 8.0mph /  12.9km/h 17.0mph /  27.4km/h 68% 0.54in /  13.7mm
17:55 68.5 °F /  20.3 °C 57.9 °F /  14.4 °C 29.27in /  991.1hPa SSW 9.0mph /  14.5km/h 19.0mph /  30.6km/h 69% 0.54in /  13.7mm
18:00 68.5 °F /  20.3 °C 57.5 °F /  14.2 °C 29.28in /  991.4hPa SSW 9.0mph /  14.5km/h 21.0mph /  33.8km/h 68% 0.54in /  13.7mm
18:05 68.8 °F /  20.4 °C 57.8 °F /  14.3 °C 29.27in /  991.1hPa SSW 9.0mph /  14.5km/h 21.0mph /  33.8km/h 68% 0.54in /  13.7mm
18:10 68.9 °F /  20.5 °C 57.5 °F /  14.2 °C 29.28in /  991.4hPa SW 9.0mph /  14.5km/h 20.0mph /  32.2km/h 67% 0.54in /  13.7mm
18:15 68.9 °F /  20.5 °C 57.5 °F /  14.2 °C 29.28in /  991.4hPa SW 5.0mph /  8km/h 19.0mph /  30.6km/h 67% 0.54in /  13.7mm
18:20 69.2 °F /  20.7 °C 57.8 °F /  14.3 °C 29.28in /  991.4hPa SW 9.0mph /  14.5km/h 18.0mph /  29km/h 67% 0.54in /  13.7mm
18:25 69.3 °F /  20.7 °C 57.5 °F /  14.2 °C 29.29in /  991.8hPa WSW 7.0mph /  11.3km/h 19.0mph /  30.6km/h 66% 0.54in /  13.7mm
18:30 69.1 °F /  20.6 °C 57.7 °F /  14.3 °C 29.29in /  991.8hPa WSW 8.0mph /  12.9km/h 19.0mph /  30.6km/h 67% 0.54in /  13.7mm
18:35 69.1 °F /  20.6 °C 57.7 °F /  14.3 °C 29.30in /  992.1hPa West 7.0mph /  11.3km/h 15.0mph /  24.1km/h 67% 0.54in /  13.7mm
18:40 68.7 °F /  20.4 °C 57.7 °F /  14.3 °C 29.30in /  992.1hPa WSW 6.0mph /  9.7km/h 13.0mph /  20.9km/h 68% 0.54in /  13.7mm
18:45 68.5 °F /  20.3 °C 57.5 °F /  14.2 °C 29.31in /  992.4hPa WSW 7.0mph /  11.3km/h 13.0mph /  20.9km/h 68% 0.54in /  13.7mm
18:50 68.1 °F /  20.1 °C 57.2 °F /  14 °C 29.32in /  992.8hPa West 12.0mph /  19.3km/h 20.0mph /  32.2km/h 68% 0.54in /  13.7mm
18:55 67.3 °F /  19.6 °C 56.4 °F /  13.6 °C 29.32in /  992.8hPa WSW 9.0mph /  14.5km/h 20.0mph /  32.2km/h 68% 0.54in /  13.7mm
19:00 66.7 °F /  19.3 °C 56.2 °F /  13.4 °C 29.32in /  992.8hPa SW 6.0mph /  9.7km/h 19.0mph /  30.6km/h 69% 0.54in /  13.7mm
19:05 66.4 °F /  19.1 °C 55.9 °F /  13.3 °C 29.32in /  992.8hPa WSW 5.0mph /  8km/h 14.0mph /  22.5km/h 69% 0.54in /  13.7mm
19:10 66.2 °F /  19 °C 56.1 °F /  13.4 °C 29.33in /  993.1hPa WSW 4.0mph /  6.4km/h 13.0mph /  20.9km/h 70% 0.54in /  13.7mm
19:15 66.5 °F /  19.2 °C 55.2 °F /  12.9 °C 29.33in /  993.1hPa WSW 8.0mph /  12.9km/h 17.0mph /  27.4km/h 67% 0.54in /  13.7mm
19:20 66.7 °F /  19.3 °C 54.6 °F /  12.6 °C 29.33in /  993.1hPa West 10.0mph /  16.1km/h 17.0mph /  27.4km/h 65% 0.54in /  13.7mm
19:25 66.5 °F /  19.2 °C 53.5 °F /  11.9 °C 29.33in /  993.1hPa West 8.0mph /  12.9km/h 18.0mph /  29km/h 63% 0.54in /  13.7mm
19:30 66.4 °F /  19.1 °C 52.1 °F /  11.2 °C 29.34in /  993.5hPa WSW 12.0mph /  19.3km/h 25.0mph /  40.2km/h 60% 0.54in /  13.7mm
19:35 66.5 °F /  19.2 °C 51.7 °F /  10.9 °C 29.34in /  993.5hPa West 10.0mph /  16.1km/h 25.0mph /  40.2km/h 59% 0.54in /  13.7mm
19:40 66.4 °F /  19.1 °C 50.2 °F /  10.1 °C 29.35in /  993.8hPa West 15.0mph /  24.1km/h 26.0mph /  41.8km/h 56% 0.54in /  13.7mm
19:45 66.5 °F /  19.2 °C 49.9 °F /  9.9 °C 29.34in /  993.5hPa West 13.0mph /  20.9km/h 26.0mph /  41.8km/h 55% 0.54in /  13.7mm
19:50 66.6 °F /  19.2 °C 47.9 °F /  8.8 °C 29.35in /  993.8hPa West 16.0mph /  25.7km/h 26.0mph /  41.8km/h 51% 0.54in /  13.7mm
19:55 66.8 °F /  19.3 °C 48.1 °F /  8.9 °C 29.35in /  993.8hPa West 12.0mph /  19.3km/h 26.0mph /  41.8km/h 51% 0.54in /  13.7mm
20:05 66.5 °F /  19.2 °C 47.8 °F /  8.8 °C 29.35in /  993.8hPa WSW 12.0mph /  19.3km/h 25.0mph /  40.2km/h 51% 0.54in /  13.7mm
20:10 66.4 °F /  19.1 °C 46.7 °F /  8.2 °C 29.35in /  993.8hPa West 15.0mph /  24.1km/h 29.0mph /  46.7km/h 49% 0.54in /  13.7mm
20:15 66.2 °F /  19 °C 47.6 °F /  8.7 °C 29.35in /  993.8hPa West 11.0mph /  17.7km/h 29.0mph /  46.7km/h 51% 0.54in /  13.7mm
20:20 65.9 °F /  18.8 °C 47.3 °F /  8.5 °C 29.35in /  993.8hPa WSW 7.0mph /  11.3km/h 26.0mph /  41.8km/h 51% 0.54in /  13.7mm
20:25 65.7 °F /  18.7 °C 46.0 °F /  7.8 °C 29.35in /  993.8hPa WSW 12.0mph /  19.3km/h 20.0mph /  32.2km/h 49% 0.54in /  13.7mm
20:30 65.7 °F /  18.7 °C 46.0 °F /  7.8 °C 29.35in /  993.8hPa West 14.0mph /  22.5km/h 21.0mph /  33.8km/h 49% 0.54in /  13.7mm
20:35 65.5 °F /  18.6 °C 46.4 °F /  8 °C 29.36in /  994.1hPa West 13.0mph /  20.9km/h 21.0mph /  33.8km/h 50% 0.54in /  13.7mm
20:40 65.4 °F /  18.6 °C 45.8 °F /  7.7 °C 29.36in /  994.1hPa WSW 9.0mph /  14.5km/h 21.0mph /  33.8km/h 49% 0.54in /  13.7mm
20:45 65.3 °F /  18.5 °C 46.2 °F /  7.9 °C 29.36in /  994.1hPa WSW 8.0mph /  12.9km/h 20.0mph /  32.2km/h 50% 0.54in /  13.7mm
20:50 65.2 °F /  18.4 °C 46.1 °F /  7.8 °C 29.35in /  993.8hPa WSW 7.0mph /  11.3km/h 19.0mph /  30.6km/h 50% 0.54in /  13.7mm
20:55 65.0 °F /  18.3 °C 45.9 °F /  7.7 °C 29.36in /  994.1hPa WSW 10.0mph /  16.1km/h 25.0mph /  40.2km/h 50% 0.54in /  13.7mm
21:05 65.0 °F /  18.3 °C 45.9 °F /  7.7 °C 29.36in /  994.1hPa WSW 9.0mph /  14.5km/h 23.0mph /  37km/h 50% 0.54in /  13.7mm
21:10 64.7 °F /  18.2 °C 45.6 °F /  7.6 °C 29.37in /  994.5hPa WSW 9.0mph /  14.5km/h 22.0mph /  35.4km/h 50% 0.54in /  13.7mm
21:15 64.7 °F /  18.2 °C 46.2 °F /  7.9 °C 29.37in /  994.5hPa WSW 12.0mph /  19.3km/h 21.0mph /  33.8km/h 51% 0.54in /  13.7mm
21:20 64.4 °F /  18 °C 46.4 °F /  8 °C 29.38in /  994.8hPa West 10.0mph /  16.1km/h 22.0mph /  35.4km/h 52% 0.54in /  13.7mm
21:25 64.1 °F /  17.8 °C 47.1 °F /  8.4 °C 29.38in /  994.8hPa West 11.0mph /  17.7km/h 23.0mph /  37km/h 54% 0.54in /  13.7mm
21:30 64.1 °F /  17.8 °C 46.6 °F /  8.1 °C 29.38in /  994.8hPa WSW 10.0mph /  16.1km/h 23.0mph /  37km/h 53% 0.54in /  13.7mm
21:35 63.6 °F /  17.6 °C 47.2 °F /  8.4 °C 29.38in /  994.8hPa WSW 10.0mph /  16.1km/h 23.0mph /  37km/h 55% 0.54in /  13.7mm
21:40 63.2 °F /  17.3 °C 47.3 °F /  8.5 °C 29.38in /  994.8hPa SW 11.0mph /  17.7km/h 21.0mph /  33.8km/h 56% 0.54in /  13.7mm
21:45 63.0 °F /  17.2 °C 47.5 °F /  8.6 °C 29.38in /  994.8hPa WSW 8.0mph /  12.9km/h 21.0mph /  33.8km/h 57% 0.54in /  13.7mm
21:50 62.8 °F /  17.1 °C 47.8 °F /  8.8 °C 29.38in /  994.8hPa WSW 10.0mph /  16.1km/h 17.0mph /  27.4km/h 58% 0.54in /  13.7mm
21:55 62.5 °F /  16.9 °C 48.0 °F /  8.9 °C 29.38in /  994.8hPa WSW 8.0mph /  12.9km/h 16.0mph /  25.7km/h 59% 0.54in /  13.7mm
22:05 62.4 °F /  16.9 °C 47.9 °F /  8.8 °C 29.38in /  994.8hPa WSW 7.0mph /  11.3km/h 17.0mph /  27.4km/h 59% 0.54in /  13.7mm
22:10 62.4 °F /  16.9 °C 47.9 °F /  8.8 °C 29.38in /  994.8hPa SW 7.0mph /  11.3km/h 19.0mph /  30.6km/h 59% 0.54in /  13.7mm
22:15 62.2 °F /  16.8 °C 48.2 °F /  9 °C 29.38in /  994.8hPa WSW 5.0mph /  8km/h 19.0mph /  30.6km/h 60% 0.54in /  13.7mm
22:20 62.1 °F /  16.7 °C 48.1 °F /  8.9 °C 29.39in /  995.1hPa WSW 7.0mph /  11.3km/h 15.0mph /  24.1km/h 60% 0.54in /  13.7mm
22:25 61.8 °F /  16.6 °C 48.2 °F /  9 °C 29.39in /  995.1hPa WSW 6.0mph /  9.7km/h 19.0mph /  30.6km/h 61% 0.54in /  13.7mm
22:30 61.9 °F /  16.6 °C 47.9 °F /  8.8 °C 29.39in /  995.1hPa WSW 10.0mph /  16.1km/h 19.0mph /  30.6km/h 60% 0.54in /  13.7mm
22:35 61.8 °F /  16.6 °C 48.2 °F /  9 °C 29.40in /  995.5hPa WSW 7.0mph /  11.3km/h 17.0mph /  27.4km/h 61% 0.54in /  13.7mm
22:40 61.7 °F /  16.5 °C 48.1 °F /  8.9 °C 29.40in /  995.5hPa West 9.0mph /  14.5km/h 17.0mph /  27.4km/h 61% 0.54in /  13.7mm
22:45 61.7 °F /  16.5 °C 48.1 °F /  8.9 °C 29.40in /  995.5hPa West 10.0mph /  16.1km/h 19.0mph /  30.6km/h 61% 0.54in /  13.7mm
22:50 61.6 °F /  16.4 °C 48.0 °F /  8.9 °C 29.41in /  995.8hPa West 10.0mph /  16.1km/h 19.0mph /  30.6km/h 61% 0.54in /  13.7mm
22:55 61.4 °F /  16.3 °C 47.8 °F /  8.8 °C 29.41in /  995.8hPa West 9.0mph /  14.5km/h 19.0mph /  30.6km/h 61% 0.54in /  13.7mm
23:00 61.1 °F /  16.2 °C 47.6 °F /  8.7 °C 29.41in /  995.8hPa West 8.0mph /  12.9km/h 18.0mph /  29km/h 61% 0.54in /  13.7mm
23:05 60.7 °F /  15.9 °C 47.2 °F /  8.4 °C 29.43in /  996.5hPa West 16.0mph /  25.7km/h 24.0mph /  38.6km/h 61% 0.54in /  13.7mm
23:10 60.3 °F /  15.7 °C 45.9 °F /  7.7 °C 29.43in /  996.5hPa WNW 15.0mph /  24.1km/h 34.0mph /  54.7km/h 59% 0.54in /  13.7mm
23:15 59.9 °F /  15.5 °C 45.1 °F /  7.3 °C 29.43in /  996.5hPa WNW 15.0mph /  24.1km/h 34.0mph /  54.7km/h 58% 0.54in /  13.7mm
23:20 59.7 °F /  15.4 °C 45.4 °F /  7.4 °C 29.43in /  996.5hPa West 14.0mph /  22.5km/h 25.0mph /  40.2km/h 59% 0.54in /  13.7mm
23:30 57.3 °F /  14.1 °C 44.0 °F /  6.7 °C 29.44in /  996.8hPa NW 8.0mph /  12.9km/h 25.0mph /  40.2km/h 61% 0.54in /  13.7mm
23:35 56.1 °F /  13.4 °C 42.8 °F /  6 °C 29.45in /  997.2hPa NW 10.0mph /  16.1km/h 16.0mph /  25.7km/h 61% 0.54in /  13.7mm
23:40 55.3 °F /  12.9 °C 42.9 °F /  6.1 °C 29.45in /  997.2hPa NW 8.0mph /  12.9km/h 15.0mph /  24.1km/h 63% 0.54in /  13.7mm
23:45 54.9 °F /  12.7 °C 42.6 °F /  5.9 °C 29.45in /  997.2hPa NW 11.0mph /  17.7km/h 18.0mph /  29km/h 63% 0.54in /  13.7mm
23:50 54.7 °F /  12.6 °C 42.8 °F /  6 °C 29.46in /  997.5hPa WNW 10.0mph /  16.1km/h 18.0mph /  29km/h 64% 0.54in /  13.7mm
23:55 54.5 °F /  12.5 °C 42.6 °F /  5.9 °C 29.47in /  997.9hPa WNW 10.0mph /  16.1km/h 18.0mph /  29km/h 64% 0.54in /  13.7mm
Westford Weather
Compliments of Weather Underground

 
 
Current Radar Loop:

Copyright © WestfordWeather.net 2007-2014. All rights reserved.